sensor_id;sensor_type;location;lat;lon;timestamp;P1;P2;P0
28026;PMS5003;15344;52.342;-1.290;2023-06-14T00:02:12;6;4;
28026;PMS5003;15344;52.342;-1.290;2023-06-14T00:04:37;6;6;
28026;PMS5003;15344;52.342;-1.290;2023-06-14T00:07:02;7;7;
28026;PMS5003;15344;52.342;-1.290;2023-06-14T00:09:27;12;6;
28026;PMS5003;15344;52.342;-1.290;2023-06-14T00:11:53;7;5;
28026;PMS5003;15344;52.342;-1.290;2023-06-14T00:14:18;9;6;
28026;PMS5003;15344;52.342;-1.290;2023-06-14T00:16:44;7;6;
28026;PMS5003;15344;52.342;-1.290;2023-06-14T00:19:09;5;5;
28026;PMS5003;15344;52.342;-1.290;2023-06-14T00:21:34;10;8;
28026;PMS5003;15344;52.342;-1.290;2023-06-14T00:23:59;7;6;
28026;PMS5003;15344;52.342;-1.290;2023-06-14T00:26:25;6;6;
28026;PMS5003;15344;52.342;-1.290;2023-06-14T00:28:50;7;4;
28026;PMS5003;15344;52.342;-1.290;2023-06-14T00:31:15;7;5;
28026;PMS5003;15344;52.342;-1.290;2023-06-14T00:33:40;7;7;
28026;PMS5003;15344;52.342;-1.290;2023-06-14T00:36:06;8;6;
28026;PMS5003;15344;52.342;-1.290;2023-06-14T00:38:31;7;4;
28026;PMS5003;15344;52.342;-1.290;2023-06-14T00:40:56;14;8;
28026;PMS5003;15344;52.342;-1.290;2023-06-14T00:43:22;10;9;
28026;PMS5003;15344;52.342;-1.290;2023-06-14T00:45:47;8;8;
28026;PMS5003;15344;52.342;-1.290;2023-06-14T00:48:12;8;6;
28026;PMS5003;15344;52.342;-1.290;2023-06-14T00:50:38;4;4;
28026;PMS5003;15344;52.342;-1.290;2023-06-14T00:53:03;6;5;
28026;PMS5003;15344;52.342;-1.290;2023-06-14T00:55:28;9;7;
28026;PMS5003;15344;52.342;-1.290;2023-06-14T00:57:53;11;6;
28026;PMS5003;15344;52.342;-1.290;2023-06-14T01:00:19;8;7;
28026;PMS5003;15344;52.342;-1.290;2023-06-14T01:02:44;8;6;
28026;PMS5003;15344;52.342;-1.290;2023-06-14T01:05:09;10;7;
28026;PMS5003;15344;52.342;-1.290;2023-06-14T01:07:42;8;7;
28026;PMS5003;15344;52.342;-1.290;2023-06-14T01:10:04;8;6;
28026;PMS5003;15344;52.342;-1.290;2023-06-14T01:12:29;6;5;
28026;PMS5003;15344;52.342;-1.290;2023-06-14T01:14:50;7;7;
28026;PMS5003;15344;52.342;-1.290;2023-06-14T01:17:16;8;6;
28026;PMS5003;15344;52.342;-1.290;2023-06-14T01:19:41;10;9;
28026;PMS5003;15344;52.342;-1.290;2023-06-14T01:22:07;10;9;
28026;PMS5003;15344;52.342;-1.290;2023-06-14T01:24:32;6;6;
28026;PMS5003;15344;52.342;-1.290;2023-06-14T01:26:58;7;5;
28026;PMS5003;15344;52.342;-1.290;2023-06-14T01:29:23;7;5;
28026;PMS5003;15344;52.342;-1.290;2023-06-14T01:31:48;7;7;
28026;PMS5003;15344;52.342;-1.290;2023-06-14T01:34:13;8;6;
28026;PMS5003;15344;52.342;-1.290;2023-06-14T01:36:39;7;7;
28026;PMS5003;15344;52.342;-1.290;2023-06-14T01:39:04;8;6;
28026;PMS5003;15344;52.342;-1.290;2023-06-14T01:41:29;11;6;
28026;PMS5003;15344;52.342;-1.290;2023-06-14T01:43:54;7;6;
28026;PMS5003;15344;52.342;-1.290;2023-06-14T01:46:20;7;7;
28026;PMS5003;15344;52.342;-1.290;2023-06-14T01:48:45;7;7;
28026;PMS5003;15344;52.342;-1.290;2023-06-14T01:51:10;9;9;
28026;PMS5003;15344;52.342;-1.290;2023-06-14T01:53:36;10;7;
28026;PMS5003;15344;52.342;-1.290;2023-06-14T01:56:01;7;6;
28026;PMS5003;15344;52.342;-1.290;2023-06-14T01:58:27;8;8;
28026;PMS5003;15344;52.342;-1.290;2023-06-14T02:00:52;9;4;
28026;PMS5003;15344;52.342;-1.290;2023-06-14T02:03:17;10;8;
28026;PMS5003;15344;52.342;-1.290;2023-06-14T02:05:43;7;7;
28026;PMS5003;15344;52.342;-1.290;2023-06-14T02:08:08;9;9;
28026;PMS5003;15344;52.342;-1.290;2023-06-14T02:10:33;7;7;
28026;PMS5003;15344;52.342;-1.290;2023-06-14T02:12:58;9;6;
28026;PMS5003;15344;52.342;-1.290;2023-06-14T02:15:23;14;10;
28026;PMS5003;15344;52.342;-1.290;2023-06-14T02:17:49;8;8;
28026;PMS5003;15344;52.342;-1.290;2023-06-14T02:20:14;7;5;
28026;PMS5003;15344;52.342;-1.290;2023-06-14T02:22:40;9;5;
28026;PMS5003;15344;52.342;-1.290;2023-06-14T02:25:05;9;7;
28026;PMS5003;15344;52.342;-1.290;2023-06-14T02:27:30;7;7;
28026;PMS5003;15344;52.342;-1.290;2023-06-14T02:29:56;8;7;
28026;PMS5003;15344;52.342;-1.290;2023-06-14T02:32:21;8;8;
28026;PMS5003;15344;52.342;-1.290;2023-06-14T02:34:46;7;7;
28026;PMS5003;15344;52.342;-1.290;2023-06-14T02:37:11;8;7;
28026;PMS5003;15344;52.342;-1.290;2023-06-14T02:39:37;11;7;
28026;PMS5003;15344;52.342;-1.290;2023-06-14T02:42:02;8;6;
28026;PMS5003;15344;52.342;-1.290;2023-06-14T02:44:28;11;8;
28026;PMS5003;15344;52.342;-1.290;2023-06-14T02:46:53;6;6;
28026;PMS5003;15344;52.342;-1.290;2023-06-14T02:49:18;9;6;
28026;PMS5003;15344;52.342;-1.290;2023-06-14T02:51:44;7;6;
28026;PMS5003;15344;52.342;-1.290;2023-06-14T02:54:10;8;7;
28026;PMS5003;15344;52.342;-1.290;2023-06-14T02:56:35;9;9;
28026;PMS5003;15344;52.342;-1.290;2023-06-14T02:59:05;5;5;
28026;PMS5003;15344;52.342;-1.290;2023-06-14T03:01:26;10;8;
28026;PMS5003;15344;52.342;-1.290;2023-06-14T03:03:51;11;8;
28026;PMS5003;15344;52.342;-1.290;2023-06-14T03:06:17;9;8;
28026;PMS5003;15344;52.342;-1.290;2023-06-14T03:08:42;10;8;
28026;PMS5003;15344;52.342;-1.290;2023-06-14T03:11:08;13;10;
28026;PMS5003;15344;52.342;-1.290;2023-06-14T03:13:33;11;9;
28026;PMS5003;15344;52.342;-1.290;2023-06-14T03:15:59;11;9;
28026;PMS5003;15344;52.342;-1.290;2023-06-14T03:18:24;13;10;
28026;PMS5003;15344;52.342;-1.290;2023-06-14T03:20:49;9;9;
28026;PMS5003;15344;52.342;-1.290;2023-06-14T03:23:14;13;10;
28026;PMS5003;15344;52.342;-1.290;2023-06-14T03:25:39;12;12;
28026;PMS5003;15344;52.342;-1.290;2023-06-14T03:28:05;15;13;
28026;PMS5003;15344;52.342;-1.290;2023-06-14T03:30:31;15;14;
28026;PMS5003;15344;52.342;-1.290;2023-06-14T03:32:56;16;10;
28026;PMS5003;15344;52.342;-1.290;2023-06-14T03:35:21;14;14;
28026;PMS5003;15344;52.342;-1.290;2023-06-14T03:37:47;20;15;
28026;PMS5003;15344;52.342;-1.290;2023-06-14T03:40:12;19;16;
28026;PMS5003;15344;52.342;-1.290;2023-06-14T03:42:37;22;19;
28026;PMS5003;15344;52.342;-1.290;2023-06-14T03:45:03;21;19;
28026;PMS5003;15344;52.342;-1.290;2023-06-14T03:47:29;18;18;
28026;PMS5003;15344;52.342;-1.290;2023-06-14T03:49:54;17;15;
28026;PMS5003;15344;52.342;-1.290;2023-06-14T03:52:19;20;19;
28026;PMS5003;15344;52.342;-1.290;2023-06-14T03:54:44;23;21;
28026;PMS5003;15344;52.342;-1.290;2023-06-14T03:57:10;22;16;
28026;PMS5003;15344;52.342;-1.290;2023-06-14T03:59:35;22;18;
28026;PMS5003;15344;52.342;-1.290;2023-06-14T04:02:00;16;15;
28026;PMS5003;15344;52.342;-1.290;2023-06-14T04:04:25;15;15;
28026;PMS5003;15344;52.342;-1.290;2023-06-14T04:06:51;20;18;
28026;PMS5003;15344;52.342;-1.290;2023-06-14T04:09:16;22;22;
28026;PMS5003;15344;52.342;-1.290;2023-06-14T04:11:41;19;17;
28026;PMS5003;15344;52.342;-1.290;2023-06-14T04:14:06;23;20;
28026;PMS5003;15344;52.342;-1.290;2023-06-14T04:16:31;21;20;
28026;PMS5003;15344;52.342;-1.290;2023-06-14T04:18:57;21;20;
28026;PMS5003;15344;52.342;-1.290;2023-06-14T04:21:22;21;18;
28026;PMS5003;15344;52.342;-1.290;2023-06-14T04:23:48;24;19;
28026;PMS5003;15344;52.342;-1.290;2023-06-14T04:26:13;22;19;
28026;PMS5003;15344;52.342;-1.290;2023-06-14T04:28:39;24;19;
28026;PMS5003;15344;52.342;-1.290;2023-06-14T04:31:04;18;18;
28026;PMS5003;15344;52.342;-1.290;2023-06-14T04:33:29;18;18;
28026;PMS5003;15344;52.342;-1.290;2023-06-14T04:35:54;19;19;
28026;PMS5003;15344;52.342;-1.290;2023-06-14T04:38:20;21;21;
28026;PMS5003;15344;52.342;-1.290;2023-06-14T04:40:45;21;19;
28026;PMS5003;15344;52.342;-1.290;2023-06-14T04:43:11;20;17;
28026;PMS5003;15344;52.342;-1.290;2023-06-14T04:45:36;16;16;
28026;PMS5003;15344;52.342;-1.290;2023-06-14T04:48:01;21;18;
28026;PMS5003;15344;52.342;-1.290;2023-06-14T04:50:27;22;19;
28026;PMS5003;15344;52.342;-1.290;2023-06-14T04:52:53;21;20;
28026;PMS5003;15344;52.342;-1.290;2023-06-14T04:55:18;24;20;
28026;PMS5003;15344;52.342;-1.290;2023-06-14T04:57:43;19;19;
28026;PMS5003;15344;52.342;-1.290;2023-06-14T05:00:09;19;18;
28026;PMS5003;15344;52.342;-1.290;2023-06-14T05:02:34;20;19;
28026;PMS5003;15344;52.342;-1.290;2023-06-14T05:05:00;20;19;
28026;PMS5003;15344;52.342;-1.290;2023-06-14T05:07:25;14;14;
28026;PMS5003;15344;52.342;-1.290;2023-06-14T05:09:50;19;17;
28026;PMS5003;15344;52.342;-1.290;2023-06-14T05:12:16;15;15;
28026;PMS5003;15344;52.342;-1.290;2023-06-14T05:14:42;17;16;
28026;PMS5003;15344;52.342;-1.290;2023-06-14T05:17:08;18;16;
28026;PMS5003;15344;52.342;-1.290;2023-06-14T05:19:34;19;17;
28026;PMS5003;15344;52.342;-1.290;2023-06-14T05:21:59;18;16;
28026;PMS5003;15344;52.342;-1.290;2023-06-14T05:24:24;22;20;
28026;PMS5003;15344;52.342;-1.290;2023-06-14T05:26:49;18;16;
28026;PMS5003;15344;52.342;-1.290;2023-06-14T05:29:15;19;17;
28026;PMS5003;15344;52.342;-1.290;2023-06-14T05:31:41;20;18;
28026;PMS5003;15344;52.342;-1.290;2023-06-14T05:34:06;18;14;
28026;PMS5003;15344;52.342;-1.290;2023-06-14T05:36:32;23;16;
28026;PMS5003;15344;52.342;-1.290;2023-06-14T05:38:58;20;17;
28026;PMS5003;15344;52.342;-1.290;2023-06-14T05:41:24;20;19;
28026;PMS5003;15344;52.342;-1.290;2023-06-14T05:43:49;16;15;
28026;PMS5003;15344;52.342;-1.290;2023-06-14T05:46:14;18;16;
28026;PMS5003;15344;52.342;-1.290;2023-06-14T05:48:40;15;14;
28026;PMS5003;15344;52.342;-1.290;2023-06-14T05:51:05;18;14;
28026;PMS5003;15344;52.342;-1.290;2023-06-14T05:53:30;19;15;
28026;PMS5003;15344;52.342;-1.290;2023-06-14T05:55:56;20;16;
28026;PMS5003;15344;52.342;-1.290;2023-06-14T05:58:22;21;16;
28026;PMS5003;15344;52.342;-1.290;2023-06-14T06:00:47;19;13;
28026;PMS5003;15344;52.342;-1.290;2023-06-14T06:03:13;15;13;
28026;PMS5003;15344;52.342;-1.290;2023-06-14T06:05:38;17;13;
28026;PMS5003;15344;52.342;-1.290;2023-06-14T06:08:03;20;17;
28026;PMS5003;15344;52.342;-1.290;2023-06-14T06:10:28;15;14;
28026;PMS5003;15344;52.342;-1.290;2023-06-14T06:12:54;20;15;
28026;PMS5003;15344;52.342;-1.290;2023-06-14T06:15:20;16;15;
28026;PMS5003;15344;52.342;-1.290;2023-06-14T06:17:46;18;15;
28026;PMS5003;15344;52.342;-1.290;2023-06-14T06:20:11;18;17;
28026;PMS5003;15344;52.342;-1.290;2023-06-14T06:22:36;17;16;
28026;PMS5003;15344;52.342;-1.290;2023-06-14T06:25:01;12;12;
28026;PMS5003;15344;52.342;-1.290;2023-06-14T06:27:27;18;14;
28026;PMS5003;15344;52.342;-1.290;2023-06-14T06:29:52;17;16;
28026;PMS5003;15344;52.342;-1.290;2023-06-14T06:32:18;15;14;
28026;PMS5003;15344;52.342;-1.290;2023-06-14T06:34:43;13;13;
28026;PMS5003;15344;52.342;-1.290;2023-06-14T06:37:08;14;12;
28026;PMS5003;15344;52.342;-1.290;2023-06-14T06:39:34;14;12;
28026;PMS5003;15344;52.342;-1.290;2023-06-14T06:41:59;16;13;
28026;PMS5003;15344;52.342;-1.290;2023-06-14T06:44:25;9;9;
28026;PMS5003;15344;52.342;-1.290;2023-06-14T06:46:50;11;10;
28026;PMS5003;15344;52.342;-1.290;2023-06-14T06:49:16;12;11;
28026;PMS5003;15344;52.342;-1.290;2023-06-14T06:51:41;10;10;
28026;PMS5003;15344;52.342;-1.290;2023-06-14T06:54:06;12;11;
28026;PMS5003;15344;52.342;-1.290;2023-06-14T06:56:31;9;9;
28026;PMS5003;15344;52.342;-1.290;2023-06-14T06:58:56;10;8;
28026;PMS5003;15344;52.342;-1.290;2023-06-14T07:01:22;11;9;
28026;PMS5003;15344;52.342;-1.290;2023-06-14T07:03:48;10;8;
28026;PMS5003;15344;52.342;-1.290;2023-06-14T07:06:14;11;9;
28026;PMS5003;15344;52.342;-1.290;2023-06-14T07:08:40;14;11;
28026;PMS5003;15344;52.342;-1.290;2023-06-14T07:11:05;8;8;
28026;PMS5003;15344;52.342;-1.290;2023-06-14T07:13:30;7;7;
28026;PMS5003;15344;52.342;-1.290;2023-06-14T07:15:57;7;7;
28026;PMS5003;15344;52.342;-1.290;2023-06-14T07:18:22;7;7;
28026;PMS5003;15344;52.342;-1.290;2023-06-14T07:20:48;12;9;
28026;PMS5003;15344;52.342;-1.290;2023-06-14T07:23:13;13;8;
28026;PMS5003;15344;52.342;-1.290;2023-06-14T07:25:39;11;8;
28026;PMS5003;15344;52.342;-1.290;2023-06-14T07:28:05;10;9;
28026;PMS5003;15344;52.342;-1.290;2023-06-14T07:30:31;8;8;
28026;PMS5003;15344;52.342;-1.290;2023-06-14T07:32:56;8;8;
28026;PMS5003;15344;52.342;-1.290;2023-06-14T07:35:23;8;7;
28026;PMS5003;15344;52.342;-1.290;2023-06-14T07:37:48;8;8;
28026;PMS5003;15344;52.342;-1.290;2023-06-14T07:40:13;11;10;
28026;PMS5003;15344;52.342;-1.290;2023-06-14T07:42:39;10;10;
28026;PMS5003;15344;52.342;-1.290;2023-06-14T07:45:05;9;7;
28026;PMS5003;15344;52.342;-1.290;2023-06-14T07:47:30;7;6;
28026;PMS5003;15344;52.342;-1.290;2023-06-14T07:49:56;9;9;
28026;PMS5003;15344;52.342;-1.290;2023-06-14T07:52:22;9;6;
28026;PMS5003;15344;52.342;-1.290;2023-06-14T07:54:47;10;9;
28026;PMS5003;15344;52.342;-1.290;2023-06-14T07:57:13;9;9;
28026;PMS5003;15344;52.342;-1.290;2023-06-14T07:59:38;6;5;
28026;PMS5003;15344;52.342;-1.290;2023-06-14T08:02:04;9;8;
28026;PMS5003;15344;52.342;-1.290;2023-06-14T08:04:29;8;8;
28026;PMS5003;15344;52.342;-1.290;2023-06-14T08:06:55;8;8;
28026;PMS5003;15344;52.342;-1.290;2023-06-14T08:09:20;8;8;
28026;PMS5003;15344;52.342;-1.290;2023-06-14T08:11:46;9;7;
28026;PMS5003;15344;52.342;-1.290;2023-06-14T08:14:11;5;5;
28026;PMS5003;15344;52.342;-1.290;2023-06-14T08:16:37;7;7;
28026;PMS5003;15344;52.342;-1.290;2023-06-14T08:19:03;6;5;
28026;PMS5003;15344;52.342;-1.290;2023-06-14T08:21:28;8;7;
28026;PMS5003;15344;52.342;-1.290;2023-06-14T08:23:54;9;7;
28026;PMS5003;15344;52.342;-1.290;2023-06-14T08:26:19;11;8;
28026;PMS5003;15344;52.342;-1.290;2023-06-14T08:28:45;8;7;
28026;PMS5003;15344;52.342;-1.290;2023-06-14T08:31:10;8;6;
28026;PMS5003;15344;52.342;-1.290;2023-06-14T08:33:36;6;6;
28026;PMS5003;15344;52.342;-1.290;2023-06-14T08:36:01;8;8;
28026;PMS5003;15344;52.342;-1.290;2023-06-14T08:38:27;10;6;
28026;PMS5003;15344;52.342;-1.290;2023-06-14T08:40:53;7;7;
28026;PMS5003;15344;52.342;-1.290;2023-06-14T08:43:18;7;7;
28026;PMS5003;15344;52.342;-1.290;2023-06-14T08:45:43;5;5;
28026;PMS5003;15344;52.342;-1.290;2023-06-14T08:48:09;7;6;
28026;PMS5003;15344;52.342;-1.290;2023-06-14T08:50:35;6;5;
28026;PMS5003;15344;52.342;-1.290;2023-06-14T08:53:01;5;5;
28026;PMS5003;15344;52.342;-1.290;2023-06-14T08:55:26;7;7;
28026;PMS5003;15344;52.342;-1.290;2023-06-14T08:57:52;7;7;
28026;PMS5003;15344;52.342;-1.290;2023-06-14T09:00:17;6;5;
28026;PMS5003;15344;52.342;-1.290;2023-06-14T09:02:42;5;5;
28026;PMS5003;15344;52.342;-1.290;2023-06-14T09:05:08;5;5;
28026;PMS5003;15344;52.342;-1.290;2023-06-14T09:07:33;6;4;
28026;PMS5003;15344;52.342;-1.290;2023-06-14T09:12:24;5;5;
28026;PMS5003;15344;52.342;-1.290;2023-06-14T09:14:50;9;4;
28026;PMS5003;15344;52.342;-1.290;2023-06-14T09:17:15;4;4;
28026;PMS5003;15344;52.342;-1.290;2023-06-14T09:19:41;9;6;
28026;PMS5003;15344;52.342;-1.290;2023-06-14T09:22:06;9;5;
28026;PMS5003;15344;52.342;-1.290;2023-06-14T09:24:32;7;5;
28026;PMS5003;15344;52.342;-1.290;2023-06-14T09:26:58;5;5;
28026;PMS5003;15344;52.342;-1.290;2023-06-14T09:29:23;5;5;
28026;PMS5003;15344;52.342;-1.290;2023-06-14T09:31:49;7;6;
28026;PMS5003;15344;52.342;-1.290;2023-06-14T09:34:15;4;2;
28026;PMS5003;15344;52.342;-1.290;2023-06-14T09:36:40;7;6;
28026;PMS5003;15344;52.342;-1.290;2023-06-14T09:39:05;7;5;
28026;PMS5003;15344;52.342;-1.290;2023-06-14T09:41:31;6;5;
28026;PMS5003;15344;52.342;-1.290;2023-06-14T09:43:56;5;4;
28026;PMS5003;15344;52.342;-1.290;2023-06-14T09:46:22;6;3;
28026;PMS5003;15344;52.342;-1.290;2023-06-14T09:48:47;6;3;
28026;PMS5003;15344;52.342;-1.290;2023-06-14T09:51:13;8;7;
28026;PMS5003;15344;52.342;-1.290;2023-06-14T09:53:38;7;6;
28026;PMS5003;15344;52.342;-1.290;2023-06-14T09:56:04;9;7;
28026;PMS5003;15344;52.342;-1.290;2023-06-14T09:58:29;5;4;
28026;PMS5003;15344;52.342;-1.290;2023-06-14T10:00:55;7;6;
28026;PMS5003;15344;52.342;-1.290;2023-06-14T10:03:21;4;4;
28026;PMS5003;15344;52.342;-1.290;2023-06-14T10:05:46;6;6;
28026;PMS5003;15344;52.342;-1.290;2023-06-14T10:08:13;5;5;
28026;PMS5003;15344;52.342;-1.290;2023-06-14T10:10:38;7;7;
28026;PMS5003;15344;52.342;-1.290;2023-06-14T10:13:02;7;6;
28026;PMS5003;15344;52.342;-1.290;2023-06-14T10:15:29;6;6;
28026;PMS5003;15344;52.342;-1.290;2023-06-14T10:17:54;6;6;
28026;PMS5003;15344;52.342;-1.290;2023-06-14T10:20:23;8;7;
28026;PMS5003;15344;52.342;-1.290;2023-06-14T10:22:46;6;6;
28026;PMS5003;15344;52.342;-1.290;2023-06-14T10:25:12;7;7;
28026;PMS5003;15344;52.342;-1.290;2023-06-14T10:27:35;8;7;
28026;PMS5003;15344;52.342;-1.290;2023-06-14T10:30:03;9;8;
28026;PMS5003;15344;52.342;-1.290;2023-06-14T10:32:27;7;7;
28026;PMS5003;15344;52.342;-1.290;2023-06-14T10:34:53;6;6;
28026;PMS5003;15344;52.342;-1.290;2023-06-14T10:37:17;8;7;
28026;PMS5003;15344;52.342;-1.290;2023-06-14T10:39:43;5;5;
28026;PMS5003;15344;52.342;-1.290;2023-06-14T10:42:09;7;5;
28026;PMS5003;15344;52.342;-1.290;2023-06-14T10:47:00;8;6;
28026;PMS5003;15344;52.342;-1.290;2023-06-14T10:51:51;8;8;
28026;PMS5003;15344;52.342;-1.290;2023-06-14T10:54:16;10;7;
28026;PMS5003;15344;52.342;-1.290;2023-06-14T10:56:45;9;7;
28026;PMS5003;15344;52.342;-1.290;2023-06-14T10:59:07;6;6;
28026;PMS5003;15344;52.342;-1.290;2023-06-14T11:01:35;6;6;
28026;PMS5003;15344;52.342;-1.290;2023-06-14T11:04:04;8;5;
28026;PMS5003;15344;52.342;-1.290;2023-06-14T11:06:24;7;7;
28026;PMS5003;15344;52.342;-1.290;2023-06-14T11:11:16;7;7;
28026;PMS5003;15344;52.342;-1.290;2023-06-14T11:13:43;9;6;
28026;PMS5003;15344;52.342;-1.290;2023-06-14T11:16:10;7;7;
28026;PMS5003;15344;52.342;-1.290;2023-06-14T11:18:32;7;6;
28026;PMS5003;15344;52.342;-1.290;2023-06-14T11:20:58;10;7;
28026;PMS5003;15344;52.342;-1.290;2023-06-14T11:23:23;10;7;
28026;PMS5003;15344;52.342;-1.290;2023-06-14T11:25:49;10;8;
28026;PMS5003;15344;52.342;-1.290;2023-06-14T11:28:15;6;6;
28026;PMS5003;15344;52.342;-1.290;2023-06-14T11:30:40;7;7;
28026;PMS5003;15344;52.342;-1.290;2023-06-14T11:33:09;9;6;
28026;PMS5003;15344;52.342;-1.290;2023-06-14T11:35:32;13;8;
28026;PMS5003;15344;52.342;-1.290;2023-06-14T11:37:57;10;10;
28026;PMS5003;15344;52.342;-1.290;2023-06-14T11:40:23;8;7;
28026;PMS5003;15344;52.342;-1.290;2023-06-14T11:42:49;8;8;
28026;PMS5003;15344;52.342;-1.290;2023-06-14T11:45:15;9;8;
28026;PMS5003;15344;52.342;-1.290;2023-06-14T11:47:40;11;8;
28026;PMS5003;15344;52.342;-1.290;2023-06-14T11:50:07;8;8;
28026;PMS5003;15344;52.342;-1.290;2023-06-14T11:52:32;9;9;
28026;PMS5003;15344;52.342;-1.290;2023-06-14T11:54:57;12;10;
28026;PMS5003;15344;52.342;-1.290;2023-06-14T11:57:23;8;8;
28026;PMS5003;15344;52.342;-1.290;2023-06-14T11:59:48;8;6;
28026;PMS5003;15344;52.342;-1.290;2023-06-14T12:02:14;11;8;
28026;PMS5003;15344;52.342;-1.290;2023-06-14T12:04:40;11;8;
28026;PMS5003;15344;52.342;-1.290;2023-06-14T12:07:08;8;8;
28026;PMS5003;15344;52.342;-1.290;2023-06-14T12:09:31;10;9;
28026;PMS5003;15344;52.342;-1.290;2023-06-14T12:12:00;9;9;
28026;PMS5003;15344;52.342;-1.290;2023-06-14T12:16:48;9;9;
28026;PMS5003;15344;52.342;-1.290;2023-06-14T12:19:14;7;6;
28026;PMS5003;15344;52.342;-1.290;2023-06-14T12:21:39;9;8;
28026;PMS5003;15344;52.342;-1.290;2023-06-14T12:24:05;8;8;
28026;PMS5003;15344;52.342;-1.290;2023-06-14T12:26:31;12;9;
28026;PMS5003;15344;52.342;-1.290;2023-06-14T12:28:56;8;8;
28026;PMS5003;15344;52.342;-1.290;2023-06-14T12:31:22;9;7;
28026;PMS5003;15344;52.342;-1.290;2023-06-14T12:33:48;9;7;
28026;PMS5003;15344;52.342;-1.290;2023-06-14T12:36:13;12;10;
28026;PMS5003;15344;52.342;-1.290;2023-06-14T12:38:39;9;8;
28026;PMS5003;15344;52.342;-1.290;2023-06-14T12:41:05;9;8;
28026;PMS5003;15344;52.342;-1.290;2023-06-14T12:43:30;7;7;
28026;PMS5003;15344;52.342;-1.290;2023-06-14T12:45:56;12;9;
28026;PMS5003;15344;52.342;-1.290;2023-06-14T12:48:22;11;9;
28026;PMS5003;15344;52.342;-1.290;2023-06-14T12:50:47;9;8;
28026;PMS5003;15344;52.342;-1.290;2023-06-14T12:53:13;13;8;
28026;PMS5003;15344;52.342;-1.290;2023-06-14T12:55:38;11;9;
28026;PMS5003;15344;52.342;-1.290;2023-06-14T12:58:04;13;12;
28026;PMS5003;15344;52.342;-1.290;2023-06-14T13:00:30;13;11;
28026;PMS5003;15344;52.342;-1.290;2023-06-14T13:02:55;9;9;
28026;PMS5003;15344;52.342;-1.290;2023-06-14T13:05:21;8;8;
28026;PMS5003;15344;52.342;-1.290;2023-06-14T13:07:47;10;9;
28026;PMS5003;15344;52.342;-1.290;2023-06-14T13:10:12;12;12;
28026;PMS5003;15344;52.342;-1.290;2023-06-14T13:12:38;9;7;
28026;PMS5003;15344;52.342;-1.290;2023-06-14T13:15:04;9;9;
28026;PMS5003;15344;52.342;-1.290;2023-06-14T13:17:29;11;11;
28026;PMS5003;15344;52.342;-1.290;2023-06-14T13:19:55;11;11;
28026;PMS5003;15344;52.342;-1.290;2023-06-14T13:22:20;11;10;
28026;PMS5003;15344;52.342;-1.290;2023-06-14T13:24:46;16;16;
28026;PMS5003;15344;52.342;-1.290;2023-06-14T13:27:11;10;10;
28026;PMS5003;15344;52.342;-1.290;2023-06-14T13:29:37;11;10;
28026;PMS5003;15344;52.342;-1.290;2023-06-14T13:32:03;14;10;
28026;PMS5003;15344;52.342;-1.290;2023-06-14T13:34:28;11;11;
28026;PMS5003;15344;52.342;-1.290;2023-06-14T13:36:54;12;12;
28026;PMS5003;15344;52.342;-1.290;2023-06-14T13:39:19;14;12;
28026;PMS5003;15344;52.342;-1.290;2023-06-14T13:41:45;10;10;
28026;PMS5003;15344;52.342;-1.290;2023-06-14T13:44:11;9;8;
28026;PMS5003;15344;52.342;-1.290;2023-06-14T13:46:36;12;9;
28026;PMS5003;15344;52.342;-1.290;2023-06-14T13:49:02;13;11;
28026;PMS5003;15344;52.342;-1.290;2023-06-14T13:51:27;19;12;
28026;PMS5003;15344;52.342;-1.290;2023-06-14T13:53:53;11;10;
28026;PMS5003;15344;52.342;-1.290;2023-06-14T13:56:18;12;10;
28026;PMS5003;15344;52.342;-1.290;2023-06-14T13:58:44;15;13;
28026;PMS5003;15344;52.342;-1.290;2023-06-14T14:01:10;13;11;
28026;PMS5003;15344;52.342;-1.290;2023-06-14T14:03:35;17;16;
28026;PMS5003;15344;52.342;-1.290;2023-06-14T14:06:01;15;11;
28026;PMS5003;15344;52.342;-1.290;2023-06-14T14:08:26;11;9;
28026;PMS5003;15344;52.342;-1.290;2023-06-14T14:10:52;13;13;
28026;PMS5003;15344;52.342;-1.290;2023-06-14T14:13:17;13;13;
28026;PMS5003;15344;52.342;-1.290;2023-06-14T14:15:43;15;13;
28026;PMS5003;15344;52.342;-1.290;2023-06-14T14:18:09;12;12;
28026;PMS5003;15344;52.342;-1.290;2023-06-14T14:20:35;11;11;
28026;PMS5003;15344;52.342;-1.290;2023-06-14T14:23:00;14;13;
28026;PMS5003;15344;52.342;-1.290;2023-06-14T14:25:26;11;11;
28026;PMS5003;15344;52.342;-1.290;2023-06-14T14:27:52;12;12;
28026;PMS5003;15344;52.342;-1.290;2023-06-14T14:30:17;13;11;
28026;PMS5003;15344;52.342;-1.290;2023-06-14T14:32:43;13;8;
28026;PMS5003;15344;52.342;-1.290;2023-06-14T14:35:08;15;11;
28026;PMS5003;15344;52.342;-1.290;2023-06-14T14:37:34;13;13;
28026;PMS5003;15344;52.342;-1.290;2023-06-14T14:39:59;12;11;
28026;PMS5003;15344;52.342;-1.290;2023-06-14T14:42:25;14;11;
28026;PMS5003;15344;52.342;-1.290;2023-06-14T14:44:51;15;11;
28026;PMS5003;15344;52.342;-1.290;2023-06-14T14:47:16;17;11;
28026;PMS5003;15344;52.342;-1.290;2023-06-14T14:49:41;12;11;
28026;PMS5003;15344;52.342;-1.290;2023-06-14T14:52:07;9;9;
28026;PMS5003;15344;52.342;-1.290;2023-06-14T14:54:32;14;12;
28026;PMS5003;15344;52.342;-1.290;2023-06-14T14:56:58;15;15;
28026;PMS5003;15344;52.342;-1.290;2023-06-14T14:59:23;12;12;
28026;PMS5003;15344;52.342;-1.290;2023-06-14T15:01:49;13;11;
28026;PMS5003;15344;52.342;-1.290;2023-06-14T15:04:14;14;14;
28026;PMS5003;15344;52.342;-1.290;2023-06-14T15:06:40;13;12;
28026;PMS5003;15344;52.342;-1.290;2023-06-14T15:09:05;11;11;
28026;PMS5003;15344;52.342;-1.290;2023-06-14T15:11:31;12;10;
28026;PMS5003;15344;52.342;-1.290;2023-06-14T15:13:57;13;12;
28026;PMS5003;15344;52.342;-1.290;2023-06-14T15:16:22;14;11;
28026;PMS5003;15344;52.342;-1.290;2023-06-14T15:18:48;10;10;
28026;PMS5003;15344;52.342;-1.290;2023-06-14T15:21:14;13;11;
28026;PMS5003;15344;52.342;-1.290;2023-06-14T15:23:39;11;11;
28026;PMS5003;15344;52.342;-1.290;2023-06-14T15:26:05;11;11;
28026;PMS5003;15344;52.342;-1.290;2023-06-14T15:28:31;15;10;
28026;PMS5003;15344;52.342;-1.290;2023-06-14T15:30:56;10;9;
28026;PMS5003;15344;52.342;-1.290;2023-06-14T15:33:22;15;14;
28026;PMS5003;15344;52.342;-1.290;2023-06-14T15:35:47;10;9;
28026;PMS5003;15344;52.342;-1.290;2023-06-14T15:38:13;11;10;
28026;PMS5003;15344;52.342;-1.290;2023-06-14T15:40:39;10;10;
28026;PMS5003;15344;52.342;-1.290;2023-06-14T15:43:04;15;10;
28026;PMS5003;15344;52.342;-1.290;2023-06-14T15:45:30;10;10;
28026;PMS5003;15344;52.342;-1.290;2023-06-14T15:47:56;10;10;
28026;PMS5003;15344;52.342;-1.290;2023-06-14T15:50:21;10;10;
28026;PMS5003;15344;52.342;-1.290;2023-06-14T15:52:48;14;9;
28026;PMS5003;15344;52.342;-1.290;2023-06-14T15:55:13;12;8;
28026;PMS5003;15344;52.342;-1.290;2023-06-14T15:57:39;10;7;
28026;PMS5003;15344;52.342;-1.290;2023-06-14T16:00:05;11;10;
28026;PMS5003;15344;52.342;-1.290;2023-06-14T16:02:30;14;10;
28026;PMS5003;15344;52.342;-1.290;2023-06-14T16:04:56;11;11;
28026;PMS5003;15344;52.342;-1.290;2023-06-14T16:07:21;8;8;
28026;PMS5003;15344;52.342;-1.290;2023-06-14T16:09:47;10;8;
28026;PMS5003;15344;52.342;-1.290;2023-06-14T16:12:13;10;10;
28026;PMS5003;15344;52.342;-1.290;2023-06-14T16:14:39;10;7;
28026;PMS5003;15344;52.342;-1.290;2023-06-14T16:17:05;10;9;
28026;PMS5003;15344;52.342;-1.290;2023-06-14T16:19:30;12;11;